Balmullo, United Kingdom
Current Conditions -  °F | °C
As of 3:50 PM on Sunday 21 Dec 2014 (Local Time) from EGQL Reporting Station
Light Rain Light Rain  
Wind Chill: 52°   Ceiling: 5000
Heat Index: 52°   Visibility: 6mi
Dew Point: 48°   Wind: 24mph
Humidity: 88%   Direction: 250°WSW
Pressure: 29.62"   Gusts: NA
Location:  56.38°N, 2.93°W
Report Text: EGQL 211550Z 25021KT 9999 -RADZ SCT022 SCT034 BKN050 11/09 Q1003 WHT
Loading
Personal Weather Stations






























Interactive Weather Map New forecast layout! Learn more

10-Day Weather Forecast

Advertisements
Track Severe Weather on mobile